Pomona, Washington
Current Conditions -  °F | °C
As of 10:53 AM on Thursday 23 Oct 2014 (Local Time) from KYKM Reporting Station
Light Rain Light Rain  
Wind Chill: 53°   Ceiling: 7000
Heat Index: 53°   Visibility: 10mi
Dew Point: 47°   Wind: 0mph
Humidity: 80%   Direction: NA
Pressure: 29.8"   Gusts: NA
Location:  46.5979°N, 120.534°W
Report Text: KYKM 231753Z 00000KT 10SM -RA FEW034 BKN070 OVC100 12/08 A2980 RMK AO2 RAE1658B42 SLP090 P0000 60001 T01170083 10117 20078 51014
Loading
Personal Weather Stations






























Interactive Weather Map
Tropical Storm Tracking
New forecast layout! Learn more

10-Day Weather Forecast

Advertisements
Track Severe Weather on mobile